createdAt,value
2023-03-20T00:00:12.047Z,3.25
2023-03-20T00:01:35.442Z,2.42
2023-03-20T00:02:58.858Z,2.55
2023-03-20T00:04:22.995Z,2.90
2023-03-20T00:05:46.829Z,3.03
2023-03-20T00:07:12.550Z,2.92
2023-03-20T00:08:36.022Z,2.67
2023-03-20T00:09:58.683Z,2.70
2023-03-20T00:11:32.057Z,3.03
2023-03-20T00:12:54.765Z,2.65
2023-03-20T00:14:19.236Z,2.70
2023-03-20T00:15:44.299Z,2.70
2023-03-20T00:17:12.178Z,2.75
2023-03-20T00:18:34.555Z,2.55
2023-03-20T00:19:57.887Z,2.60
2023-03-20T00:21:21.449Z,2.40
2023-03-20T00:22:44.915Z,2.67
2023-03-20T00:24:08.997Z,2.60
2023-03-20T00:25:32.636Z,2.90
2023-03-20T00:26:55.269Z,3.05
2023-03-20T00:28:38.954Z,2.58
2023-03-20T00:30:01.501Z,2.72
2023-03-20T00:31:28.703Z,2.78
2023-03-20T00:32:53.028Z,2.47
2023-03-20T00:34:19.411Z,2.60
2023-03-20T00:35:42.907Z,2.60
2023-03-20T00:37:05.447Z,2.63
2023-03-20T00:38:29.149Z,2.90
2023-03-20T00:39:59.022Z,2.72
2023-03-20T00:41:25.441Z,2.30
2023-03-20T00:42:51.327Z,2.60
2023-03-20T00:44:22.828Z,2.47
2023-03-20T00:45:46.848Z,2.72
2023-03-20T00:47:17.540Z,2.95
2023-03-20T00:48:41.518Z,2.85
2023-03-20T00:50:13.038Z,2.60
2023-03-20T00:51:36.333Z,2.60
2023-03-20T00:53:00.315Z,2.95
2023-03-20T00:54:23.103Z,2.63
2023-03-20T00:55:46.477Z,2.83
2023-03-20T00:57:12.243Z,2.63
2023-03-20T00:58:36.847Z,2.95
2023-03-20T01:00:01.466Z,2.38
2023-03-20T01:01:24.994Z,2.90
2023-03-20T01:02:48.872Z,2.90
2023-03-20T01:04:13.544Z,2.55
2023-03-20T01:05:36.402Z,2.65
2023-03-20T01:06:59.980Z,3.03
2023-03-20T01:08:24.593Z,2.60
2023-03-20T01:09:47.191Z,2.85
2023-03-20T01:11:11.819Z,2.67
2023-03-20T01:12:34.278Z,3.15
2023-03-20T01:13:57.851Z,2.75
2023-03-20T01:15:22.873Z,2.67
2023-03-20T01:16:46.416Z,2.90
2023-03-20T01:18:14.470Z,2.88
2023-03-20T01:19:40.631Z,2.75
2023-03-20T01:21:04.055Z,3.05
2023-03-20T01:22:26.430Z,3.55
2023-03-20T01:23:50.078Z,2.80
2023-03-20T01:25:12.556Z,2.92
2023-03-20T01:26:37.631Z,2.88
2023-03-20T01:28:00.191Z,2.88
2023-03-20T01:29:25.029Z,2.67
2023-03-20T01:30:50.142Z,3.10
2023-03-20T01:32:14.695Z,2.78
2023-03-20T01:33:39.505Z,3.00
2023-03-20T01:35:02.974Z,2.85
2023-03-20T01:36:26.649Z,2.60
2023-03-20T01:37:50.158Z,3.08
2023-03-20T01:39:13.569Z,3.65
2023-03-20T01:40:45.063Z,2.67
2023-03-20T01:42:10.230Z,2.75
2023-03-20T01:43:33.007Z,3.03
2023-03-20T01:44:56.451Z,3.10
2023-03-20T01:46:22.314Z,2.67
2023-03-20T01:47:45.716Z,3.90
2023-03-20T01:49:49.749Z,2.97
2023-03-20T01:51:13.103Z,3.13
2023-03-20T01:52:35.565Z,3.08
2023-03-20T01:54:01.742Z,3.00
2023-03-20T01:55:24.756Z,3.15
2023-03-20T01:56:50.927Z,2.83
2023-03-20T01:58:18.008Z,3.00
2023-03-20T01:59:44.227Z,3.00
2023-03-20T02:01:08.804Z,3.42
2023-03-20T02:02:31.931Z,2.50
2023-03-20T02:03:55.748Z,3.22
2023-03-20T02:05:22.178Z,3.03
2023-03-20T02:06:46.632Z,3.10
2023-03-20T02:08:24.099Z,2.90
2023-03-20T02:09:47.897Z,3.17
2023-03-20T02:11:11.687Z,3.38
2023-03-20T02:12:34.481Z,3.58
2023-03-20T02:14:00.959Z,2.60
2023-03-20T02:15:26.027Z,3.33
2023-03-20T02:16:50.334Z,3.55
2023-03-20T02:18:12.802Z,2.95
2023-03-20T02:19:41.969Z,3.13
2023-03-20T02:21:40.943Z,3.25
2023-03-20T02:23:34.720Z,2.90
2023-03-20T02:25:19.352Z,3.00
2023-03-20T02:26:51.484Z,3.33
2023-03-20T02:28:44.901Z,2.92
2023-03-20T02:30:25.751Z,2.90
2023-03-20T02:32:33.561Z,3.00
2023-03-20T02:34:20.118Z,3.20
2023-03-20T02:36:22.309Z,3.17
2023-03-20T02:38:13.835Z,3.03
2023-03-20T02:39:59.907Z,2.58
2023-03-20T02:41:27.529Z,2.45
2023-03-20T02:42:59.545Z,2.92
2023-03-20T02:44:24.943Z,2.53
2023-03-20T02:45:52.718Z,3.45
2023-03-20T02:47:19.380Z,3.42
2023-03-20T02:48:48.402Z,2.95
2023-03-20T02:50:17.203Z,3.55
2023-03-20T02:51:43.680Z,2.78
2023-03-20T02:53:18.785Z,2.83
2023-03-20T02:54:47.161Z,2.70
2023-03-20T02:56:17.410Z,3.28
2023-03-20T02:57:50.418Z,3.38
2023-03-20T02:59:20.930Z,3.33
2023-03-20T03:00:48.558Z,2.72
2023-03-20T03:02:14.077Z,2.83
2023-03-20T03:03:41.469Z,2.80
2023-03-20T03:05:07.968Z,3.25
2023-03-20T03:06:32.596Z,3.30
2023-03-20T03:07:57.671Z,3.20
2023-03-20T03:09:26.027Z,3.05
2023-03-20T03:10:52.306Z,3.20
2023-03-20T03:12:18.835Z,3.10
2023-03-20T03:13:46.273Z,3.10
2023-03-20T03:15:14.921Z,2.80
2023-03-20T03:16:39.900Z,3.50
2023-03-20T03:18:03.680Z,3.40
2023-03-20T03:19:29.409Z,3.42
2023-03-20T03:20:58.134Z,3.38
2023-03-20T03:22:22.226Z,3.17
2023-03-20T03:23:47.688Z,3.03
2023-03-20T03:25:14.530Z,3.72
2023-03-20T03:26:39.058Z,2.75
2023-03-20T03:28:04.731Z,2.92
2023-03-20T03:29:31.947Z,3.65
2023-03-20T03:30:55.190Z,3.55
2023-03-20T03:32:26.499Z,3.67
2023-03-20T03:33:52.121Z,3.17
2023-03-20T03:35:16.874Z,3.50
2023-03-20T03:36:45.234Z,3.45
2023-03-20T03:38:22.653Z,3.60
2023-03-20T03:39:52.088Z,3.80
2023-03-20T03:41:23.879Z,3.25
2023-03-20T03:42:52.675Z,3.55
2023-03-20T03:44:23.599Z,3.90
2023-03-20T03:45:49.566Z,3.28
2023-03-20T03:47:18.033Z,3.42
2023-03-20T03:48:45.680Z,3.90
2023-03-20T03:50:13.619Z,3.40
2023-03-20T03:51:38.112Z,3.72
2023-03-20T03:53:05.914Z,4.18
2023-03-20T03:54:32.097Z,3.40
2023-03-20T03:55:59.523Z,3.55
2023-03-20T03:57:27.433Z,3.63
2023-03-20T03:58:53.331Z,3.83
2023-03-20T04:00:18.306Z,4.10
2023-03-20T04:01:44.395Z,3.97
2023-03-20T04:03:09.189Z,4.10
2023-03-20T04:04:33.886Z,4.15
2023-03-20T04:05:58.792Z,3.40
2023-03-20T04:07:21.733Z,3.80
2023-03-20T04:08:45.628Z,3.90
2023-03-20T04:10:09.109Z,4.82
2023-03-20T04:11:32.640Z,4.45
2023-03-20T04:12:57.512Z,4.38
2023-03-20T04:14:21.115Z,4.22
2023-03-20T04:15:44.584Z,3.95
2023-03-20T04:17:07.939Z,3.13
2023-03-20T04:18:31.413Z,3.90
2023-03-20T04:19:53.847Z,3.85
2023-03-20T04:21:17.869Z,4.90
2023-03-20T04:22:41.660Z,3.90
2023-03-20T04:24:06.610Z,4.45
2023-03-20T04:25:29.005Z,4.20
2023-03-20T04:26:52.401Z,4.45
2023-03-20T04:28:16.573Z,3.83
2023-03-20T04:29:41.415Z,4.55
2023-03-20T04:31:05.707Z,3.75
2023-03-20T04:32:29.125Z,4.60
2023-03-20T04:33:52.651Z,4.22
2023-03-20T04:35:16.274Z,4.20
2023-03-20T04:36:39.895Z,4.50
2023-03-20T04:38:02.620Z,4.72
2023-03-20T04:39:26.610Z,4.28
2023-03-20T04:40:50.214Z,4.45
2023-03-20T04:42:13.703Z,5.00
2023-03-20T04:43:39.277Z,3.88
2023-03-20T04:45:01.729Z,4.03
2023-03-20T04:48:16.254Z,4.13
2023-03-20T04:49:39.861Z,4.20
2023-03-20T04:51:03.444Z,4.65
2023-03-20T04:52:27.555Z,4.32
2023-03-20T04:53:51.222Z,4.68
2023-03-20T04:55:14.718Z,4.30
2023-03-20T04:56:42.012Z,4.30
2023-03-20T04:58:08.211Z,4.25
2023-03-20T04:59:31.930Z,4.50
2023-03-20T05:00:55.599Z,4.60
2023-03-20T05:02:18.279Z,4.78
2023-03-20T05:03:41.789Z,4.47
2023-03-20T05:05:04.669Z,5.28
2023-03-20T05:06:30.186Z,5.00
2023-03-20T05:07:54.694Z,5.15
2023-03-20T05:09:17.508Z,4.72
2023-03-20T05:10:40.894Z,5.13
2023-03-20T05:12:04.426Z,5.13
2023-03-20T05:13:27.784Z,5.22
2023-03-20T05:14:52.560Z,4.85
2023-03-20T05:16:16.166Z,5.00
2023-03-20T05:17:39.577Z,5.57
2023-03-20T05:19:03.018Z,5.25
2023-03-20T05:20:25.522Z,5.75
2023-03-20T05:21:49.286Z,5.75
2023-03-20T05:23:12.627Z,5.70
2023-03-20T05:24:36.140Z,5.78
2023-03-20T05:25:59.378Z,6.55
2023-03-20T05:27:22.827Z,6.32
2023-03-20T05:28:45.223Z,6.05
2023-03-20T05:30:11.314Z,6.72
2023-03-20T05:31:35.535Z,9.43
2023-03-20T05:32:59.728Z,7.50
2023-03-20T05:34:23.738Z,7.18
2023-03-20T05:35:46.409Z,6.18
2023-03-20T05:37:09.895Z,6.90
2023-03-20T05:38:32.558Z,7.00
2023-03-20T05:39:55.910Z,6.20
2023-03-20T05:41:19.351Z,6.88
2023-03-20T05:42:44.077Z,7.55
2023-03-20T05:44:07.520Z,6.68
2023-03-20T05:45:32.303Z,6.68
2023-03-20T05:46:55.876Z,6.65
2023-03-20T05:48:18.287Z,8.00
2023-03-20T05:49:41.725Z,7.90
2023-03-20T05:51:05.691Z,7.18
2023-03-20T05:52:29.068Z,6.95
2023-03-20T05:53:54.091Z,7.22
2023-03-20T05:55:17.765Z,7.65
2023-03-20T05:56:41.205Z,6.70
2023-03-20T05:58:03.603Z,6.75
2023-03-20T05:59:27.046Z,7.22
2023-03-20T06:00:51.781Z,7.50
2023-03-20T06:02:15.485Z,7.22
2023-03-20T06:03:39.032Z,6.75
2023-03-20T06:05:03.468Z,7.30
2023-03-20T06:06:26.866Z,6.57
2023-03-20T06:07:50.336Z,7.60
2023-03-20T06:09:13.725Z,7.35
2023-03-20T06:10:37.204Z,7.70
2023-03-20T06:12:00.629Z,7.85
2023-03-20T06:13:24.042Z,7.10
2023-03-20T06:14:47.459Z,7.18
2023-03-20T06:16:12.450Z,7.70
2023-03-20T06:17:35.981Z,8.23
2023-03-20T06:18:59.415Z,7.85
2023-03-20T06:20:25.305Z,7.70
2023-03-20T06:21:48.878Z,7.60
2023-03-20T06:23:12.266Z,7.75
2023-03-20T06:24:35.412Z,8.77
2023-03-20T06:26:01.498Z,8.85
2023-03-20T06:27:25.551Z,7.93
2023-03-20T06:28:48.895Z,9.13
2023-03-20T06:30:13.632Z,8.52
2023-03-20T06:31:37.466Z,8.45
2023-03-20T06:33:01.747Z,8.80
2023-03-20T06:34:25.975Z,9.05
2023-03-20T06:35:50.264Z,8.80
2023-03-20T06:37:13.872Z,7.88
2023-03-20T06:38:38.235Z,10.10
2023-03-20T06:40:01.635Z,9.18
2023-03-20T06:41:34.253Z,9.73
2023-03-20T06:42:57.929Z,9.45
2023-03-20T06:44:21.548Z,10.32
2023-03-20T06:45:44.912Z,11.60
2023-03-20T06:47:09.816Z,9.60
2023-03-20T06:48:32.312Z,12.18
2023-03-20T06:49:55.896Z,11.27
2023-03-20T06:51:19.554Z,12.15
2023-03-20T06:52:43.358Z,13.45
2023-03-20T06:54:07.781Z,13.00
2023-03-20T06:55:31.181Z,13.25
2023-03-20T06:56:53.585Z,13.85
2023-03-20T06:58:17.120Z,12.77
2023-03-20T06:59:40.614Z,13.20
2023-03-20T07:01:06.820Z,12.38
2023-03-20T07:02:31.887Z,13.80
2023-03-20T07:03:55.261Z,14.90
2023-03-20T07:05:18.897Z,14.10
2023-03-20T07:06:42.653Z,14.23
2023-03-20T07:08:07.325Z,13.98
2023-03-20T07:09:30.707Z,14.75
2023-03-20T07:10:54.982Z,14.05
2023-03-20T07:12:20.738Z,15.02
2023-03-20T07:13:44.163Z,14.13
2023-03-20T07:15:08.667Z,13.98
2023-03-20T07:16:32.151Z,13.85
2023-03-20T07:17:58.097Z,13.40
2023-03-20T07:19:21.976Z,14.38
2023-03-20T07:20:45.435Z,13.85
2023-03-20T07:22:09.951Z,14.25
2023-03-20T07:23:34.597Z,14.00
2023-03-20T07:24:58.073Z,13.48
2023-03-20T07:26:21.533Z,13.40
2023-03-20T07:27:50.452Z,12.93
2023-03-20T07:29:14.716Z,14.25
2023-03-20T07:30:38.133Z,13.57
2023-03-20T07:32:02.519Z,14.48
2023-03-20T07:33:27.335Z,13.35
2023-03-20T07:34:51.834Z,14.77
2023-03-20T07:36:15.355Z,14.10
2023-03-20T07:37:39.135Z,14.38
2023-03-20T07:39:02.554Z,14.32
2023-03-20T07:40:26.072Z,15.48
2023-03-20T07:41:49.455Z,15.13
2023-03-20T07:43:12.833Z,15.05
2023-03-20T07:44:36.551Z,14.20
2023-03-20T07:46:00.034Z,14.80
2023-03-20T07:47:23.685Z,14.77
2023-03-20T07:48:48.409Z,14.93
2023-03-20T07:50:12.493Z,14.85
2023-03-20T07:51:35.925Z,13.77
2023-03-20T07:52:59.299Z,14.43
2023-03-20T07:54:22.734Z,14.27
2023-03-20T07:55:46.387Z,13.45
2023-03-20T07:57:09.976Z,14.68
2023-03-20T07:58:33.360Z,14.95
2023-03-20T07:59:56.741Z,13.80
2023-03-20T08:01:20.070Z,13.95
2023-03-20T08:02:43.657Z,14.77
2023-03-20T08:04:08.855Z,13.82
2023-03-20T08:05:32.360Z,13.32
2023-03-20T08:06:55.918Z,12.90
2023-03-20T08:08:20.225Z,14.25
2023-03-20T08:09:43.661Z,12.93
2023-03-20T08:11:07.503Z,14.93
2023-03-20T08:12:30.941Z,14.45
2023-03-20T08:13:54.360Z,14.13
2023-03-20T08:15:17.943Z,14.23
2023-03-20T08:16:41.461Z,14.20
2023-03-20T08:18:04.983Z,14.57
2023-03-20T08:19:30.798Z,14.18
2023-03-20T08:20:54.164Z,15.65
2023-03-20T08:22:17.866Z,14.05
2023-03-20T08:23:41.268Z,14.15
2023-03-20T08:25:05.675Z,14.05
2023-03-20T08:26:29.094Z,13.60
2023-03-20T08:27:52.469Z,13.48
2023-03-20T08:29:19.073Z,14.00
2023-03-20T08:30:44.992Z,12.95
2023-03-20T08:32:08.396Z,13.05
2023-03-20T08:33:31.844Z,12.32
2023-03-20T08:34:56.628Z,12.30
2023-03-20T08:36:21.656Z,12.18
2023-03-20T08:37:45.366Z,12.48
2023-03-20T08:39:09.131Z,12.93
2023-03-20T08:40:32.681Z,14.00
2023-03-20T08:41:58.409Z,13.52
2023-03-20T08:43:23.205Z,12.25
2023-03-20T08:44:48.141Z,12.30
2023-03-20T08:46:11.740Z,11.30
2023-03-20T08:47:35.329Z,11.35
2023-03-20T08:48:58.983Z,11.45
2023-03-20T08:50:23.717Z,10.20
2023-03-20T08:51:47.237Z,11.65
2023-03-20T08:53:10.840Z,10.27
2023-03-20T08:54:34.763Z,11.57
2023-03-20T08:55:58.135Z,11.55
2023-03-20T08:57:21.524Z,10.52
2023-03-20T08:58:44.962Z,10.57
2023-03-20T09:00:12.078Z,10.77
2023-03-20T09:01:48.238Z,11.10
2023-03-20T09:03:15.622Z,11.23
2023-03-20T09:04:39.306Z,10.23
2023-03-20T09:06:07.552Z,10.52
2023-03-20T09:07:31.102Z,10.60
2023-03-20T09:08:56.671Z,10.50
2023-03-20T09:10:20.171Z,10.05
2023-03-20T09:11:43.637Z,9.30
2023-03-20T09:13:25.398Z,9.85
2023-03-20T09:14:49.398Z,9.95
2023-03-20T09:16:15.001Z,9.50
2023-03-20T09:17:38.475Z,10.88
2023-03-20T09:19:01.879Z,9.88
2023-03-20T09:20:25.272Z,9.68
2023-03-20T09:21:50.101Z,9.80
2023-03-20T09:23:13.506Z,10.05
2023-03-20T09:24:36.893Z,10.43
2023-03-20T09:26:00.646Z,8.90
2023-03-20T09:27:24.933Z,9.43
2023-03-20T09:28:48.355Z,9.57
2023-03-20T09:30:12.981Z,10.90
2023-03-20T09:31:36.383Z,8.45
2023-03-20T09:33:03.638Z,9.15
2023-03-20T09:34:27.055Z,9.65
2023-03-20T09:35:50.481Z,9.30
2023-03-20T09:37:15.525Z,8.90
2023-03-20T09:38:41.848Z,9.30
2023-03-20T09:40:06.165Z,9.80
2023-03-20T09:41:48.883Z,10.35
2023-03-20T09:43:34.675Z,9.30
2023-03-20T09:45:05.183Z,9.07
2023-03-20T09:46:39.590Z,8.52
2023-03-20T09:48:07.288Z,8.15
2023-03-20T09:49:41.112Z,8.73
2023-03-20T09:51:12.572Z,11.13
2023-03-20T09:52:39.713Z,8.90
2023-03-20T09:54:05.632Z,9.55
2023-03-20T09:55:35.929Z,8.70
2023-03-20T09:56:59.729Z,9.40
2023-03-20T09:58:25.725Z,9.10
2023-03-20T09:59:49.872Z,12.32
2023-03-20T10:01:15.884Z,9.77
2023-03-20T10:02:46.569Z,8.80
2023-03-20T10:04:11.630Z,8.43
2023-03-20T10:05:39.120Z,9.15
2023-03-20T10:07:06.225Z,8.18
2023-03-20T10:08:34.211Z,9.07
2023-03-20T10:09:57.660Z,8.05
2023-03-20T10:11:51.934Z,10.18
2023-03-20T10:13:31.070Z,8.63
2023-03-20T10:15:00.379Z,9.52
2023-03-20T10:16:33.034Z,8.68
2023-03-20T10:18:04.051Z,8.52
2023-03-20T10:19:31.108Z,9.38
2023-03-20T10:20:58.736Z,8.27
2023-03-20T10:22:26.229Z,8.15
2023-03-20T10:23:56.917Z,7.68
2023-03-20T10:25:32.111Z,7.70
2023-03-20T10:26:58.067Z,8.35
2023-03-20T10:28:24.147Z,8.57
2023-03-20T10:29:53.939Z,7.35
2023-03-20T10:31:30.988Z,7.10
2023-03-20T10:33:02.261Z,8.38
2023-03-20T10:34:46.046Z,8.15
2023-03-20T10:36:22.122Z,7.40
2023-03-20T10:38:03.649Z,7.07
2023-03-20T10:39:39.413Z,7.22
2023-03-20T10:41:04.277Z,6.78
2023-03-20T10:42:31.305Z,7.60
2023-03-20T10:43:54.889Z,7.18
2023-03-20T10:45:30.188Z,7.75
2023-03-20T10:46:56.510Z,7.40
2023-03-20T10:48:24.863Z,7.43
2023-03-20T10:49:51.785Z,6.90
2023-03-20T10:51:17.706Z,6.82
2023-03-20T10:52:43.537Z,6.40
2023-03-20T10:54:08.857Z,6.60
2023-03-20T10:55:36.091Z,5.28
2023-03-20T10:57:01.613Z,6.30
2023-03-20T10:58:27.289Z,6.07
2023-03-20T10:59:52.251Z,5.75
2023-03-20T11:01:17.126Z,5.70
2023-03-20T11:02:41.773Z,6.32
2023-03-20T11:04:05.495Z,6.38
2023-03-20T11:05:32.533Z,5.60
2023-03-20T11:07:00.867Z,5.97
2023-03-20T11:08:25.565Z,5.35
2023-03-20T11:10:08.006Z,6.20
2023-03-20T11:11:36.302Z,6.03
2023-03-20T11:12:59.796Z,5.28
2023-03-20T11:14:25.086Z,5.88
2023-03-20T11:15:48.612Z,6.07
2023-03-20T11:17:12.689Z,6.28
2023-03-20T11:18:36.757Z,5.72
2023-03-20T11:20:07.080Z,5.10
2023-03-20T11:21:31.206Z,5.13
2023-03-20T11:23:00.525Z,5.70
2023-03-20T11:24:30.421Z,4.88
2023-03-20T11:25:57.843Z,6.10
2023-03-20T11:27:27.777Z,4.97
2023-03-20T11:28:54.084Z,5.13
2023-03-20T11:30:18.572Z,6.00
2023-03-20T11:31:43.227Z,6.20
2023-03-20T11:33:07.566Z,5.03
2023-03-20T11:34:33.520Z,6.05
2023-03-20T11:35:59.481Z,5.57
2023-03-20T11:37:25.876Z,5.10
2023-03-20T11:38:49.722Z,5.85
2023-03-20T11:40:22.410Z,5.93
2023-03-20T11:41:51.493Z,5.57
2023-03-20T11:43:20.039Z,5.75
2023-03-20T11:44:43.402Z,5.30
2023-03-20T11:46:08.561Z,6.55
2023-03-20T11:47:36.707Z,6.10
2023-03-20T11:49:09.252Z,5.55
2023-03-20T11:50:35.314Z,5.72
2023-03-20T11:52:02.201Z,6.03
2023-03-20T11:53:30.023Z,7.30
2023-03-20T11:54:55.204Z,6.20
2023-03-20T11:56:26.743Z,5.78
2023-03-20T11:57:50.767Z,6.63
2023-03-20T11:59:18.189Z,6.55
2023-03-20T12:00:43.018Z,6.63
2023-03-20T12:02:18.548Z,6.18
2023-03-20T12:03:47.765Z,6.63
2023-03-20T12:05:29.653Z,7.80
2023-03-20T12:06:57.068Z,6.80
2023-03-20T12:08:24.078Z,6.30
2023-03-20T12:09:49.230Z,5.47
2023-03-20T12:11:41.771Z,6.70
2023-03-20T12:13:07.793Z,5.75
2023-03-20T12:14:39.028Z,5.80
2023-03-20T12:16:05.774Z,5.57
2023-03-20T12:17:35.657Z,5.32
2023-03-20T12:19:01.605Z,5.32
2023-03-20T12:20:29.286Z,5.85
2023-03-20T12:21:57.431Z,5.80
2023-03-20T12:23:29.507Z,6.50
2023-03-20T12:24:59.208Z,5.55
2023-03-20T12:26:25.971Z,5.68
2023-03-20T12:27:54.606Z,5.28
2023-03-20T12:29:24.827Z,5.97
2023-03-20T12:30:59.802Z,5.20
2023-03-20T12:32:27.792Z,5.72
2023-03-20T12:33:53.705Z,5.85
2023-03-20T12:35:19.542Z,5.53
2023-03-20T12:36:45.288Z,5.15
2023-03-20T12:38:19.858Z,5.90
2023-03-20T12:39:48.979Z,5.85
2023-03-20T12:41:16.129Z,6.40
2023-03-20T12:42:45.832Z,6.97
2023-03-20T12:44:27.346Z,5.93
2023-03-20T12:45:56.721Z,6.22
2023-03-20T12:47:36.237Z,6.65
2023-03-20T12:49:05.735Z,6.40
2023-03-20T12:50:33.840Z,6.32
2023-03-20T12:52:05.986Z,6.25
2023-03-20T12:53:41.045Z,7.22
2023-03-20T12:55:31.642Z,6.35
2023-03-20T12:57:07.644Z,5.70
2023-03-20T12:58:41.831Z,6.28
2023-03-20T13:00:17.677Z,7.55
2023-03-20T13:01:48.754Z,6.47
2023-03-20T13:03:28.140Z,6.65
2023-03-20T13:05:01.842Z,6.63
2023-03-20T13:06:33.780Z,7.25
2023-03-20T13:08:14.619Z,6.32
2023-03-20T13:09:47.954Z,7.45
2023-03-20T13:11:17.366Z,7.43
2023-03-20T13:12:47.809Z,6.82
2023-03-20T13:14:16.419Z,6.88
2023-03-20T13:15:52.446Z,7.32
2023-03-20T13:17:22.660Z,6.40
2023-03-20T13:19:01.055Z,6.63
2023-03-20T13:20:27.002Z,6.35
2023-03-20T13:21:56.606Z,6.68
2023-03-20T13:23:23.927Z,7.03
2023-03-20T13:24:51.045Z,6.75
2023-03-20T13:26:19.635Z,7.45
2023-03-20T13:27:45.957Z,7.13
2023-03-20T13:29:13.599Z,6.68
2023-03-20T13:30:40.949Z,7.30
2023-03-20T13:32:12.034Z,6.82
2023-03-20T13:33:47.549Z,6.60
2023-03-20T13:35:30.549Z,6.20
2023-03-20T13:37:16.000Z,6.88
2023-03-20T13:38:48.078Z,6.70
2023-03-20T13:40:15.940Z,6.57
2023-03-20T13:41:39.654Z,7.00
2023-03-20T13:43:23.817Z,6.53
2023-03-20T13:44:47.899Z,7.10
2023-03-20T13:46:13.559Z,7.63
2023-03-20T13:47:44.030Z,6.55
2023-03-20T13:49:14.458Z,7.10
2023-03-20T13:50:45.818Z,7.32
2023-03-20T13:52:11.491Z,7.72
2023-03-20T13:53:46.419Z,7.53
2023-03-20T13:55:18.393Z,7.75
2023-03-20T13:56:50.411Z,7.78
2023-03-20T13:58:32.987Z,7.90
2023-03-20T14:00:02.626Z,7.95
2023-03-20T14:01:31.472Z,7.30
2023-03-20T14:03:16.148Z,8.00
2023-03-20T14:04:43.757Z,7.72
2023-03-20T14:06:19.124Z,7.85
2023-03-20T14:07:47.751Z,8.30
2023-03-20T14:09:34.133Z,7.70
2023-03-20T14:11:05.523Z,9.15
2023-03-20T14:12:29.371Z,8.23
2023-03-20T14:13:55.192Z,8.15
2023-03-20T14:15:28.216Z,8.90
2023-03-20T14:17:35.102Z,8.15
2023-03-20T14:19:39.524Z,8.93
2023-03-20T14:21:53.690Z,9.32
2023-03-20T14:23:51.763Z,8.52
2023-03-20T14:25:55.051Z,8.27
2023-03-20T14:31:01.608Z,7.22
2023-03-20T14:38:22.717Z,7.72
2023-03-20T14:46:10.002Z,8.57
2023-03-20T14:48:11.612Z,8.27
2023-03-20T14:50:59.374Z,7.72
2023-03-20T15:01:42.406Z,8.40
2023-03-20T15:04:03.241Z,8.52
2023-03-20T15:06:32.289Z,7.78
2023-03-20T15:08:27.140Z,8.90
2023-03-20T15:10:54.958Z,8.27
2023-03-20T15:12:53.312Z,7.95
2023-03-20T15:17:13.181Z,7.78
2023-03-20T15:19:32.569Z,8.30
2023-03-20T15:21:59.783Z,7.45
2023-03-20T15:26:57.407Z,8.30
2023-03-20T15:29:35.268Z,8.05
2023-03-20T15:34:33.726Z,7.97
2023-03-20T15:36:19.416Z,8.27
2023-03-20T15:37:47.027Z,9.57
2023-03-20T15:39:16.285Z,8.98
2023-03-20T15:40:50.626Z,9.32
2023-03-20T15:42:16.471Z,9.88
2023-03-20T15:43:41.452Z,9.35
2023-03-20T15:45:22.967Z,8.90
2023-03-20T15:46:54.815Z,9.00
2023-03-20T15:48:19.884Z,8.38
2023-03-20T15:49:44.308Z,8.95
2023-03-20T15:51:09.139Z,8.68
2023-03-20T15:52:34.182Z,10.38
2023-03-20T15:53:57.968Z,9.10
2023-03-20T15:55:23.512Z,9.73
2023-03-20T15:56:47.818Z,10.38
2023-03-20T15:58:14.382Z,9.60
2023-03-20T15:59:37.874Z,9.05
2023-03-20T16:01:04.946Z,8.75
2023-03-20T16:02:29.534Z,9.27
2023-03-20T16:03:53.458Z,8.52
2023-03-20T16:05:18.310Z,9.13
2023-03-20T16:06:48.352Z,9.95
2023-03-20T16:08:15.951Z,9.73
2023-03-20T16:09:44.860Z,10.00
2023-03-20T16:11:11.185Z,8.60
2023-03-20T16:12:34.598Z,9.88
2023-03-20T16:13:58.326Z,9.57
2023-03-20T16:15:22.579Z,8.70
2023-03-20T16:16:49.586Z,9.95
2023-03-20T16:18:16.020Z,10.05
2023-03-20T16:19:39.530Z,9.13
2023-03-20T16:21:04.508Z,9.73
2023-03-20T16:22:31.308Z,9.73
2023-03-20T16:23:55.996Z,10.43
2023-03-20T16:25:20.414Z,10.77
2023-03-20T16:26:44.574Z,9.95
2023-03-20T16:28:08.216Z,9.52
2023-03-20T16:29:32.526Z,8.50
2023-03-20T16:30:57.801Z,11.20
2023-03-20T16:32:31.136Z,10.50
2023-03-20T16:33:54.195Z,9.00
2023-03-20T16:35:20.073Z,10.63
2023-03-20T16:36:43.492Z,10.23
2023-03-20T16:38:17.657Z,9.98
2023-03-20T16:39:41.052Z,9.48
2023-03-20T16:41:18.320Z,8.90
2023-03-20T16:42:41.918Z,9.25
2023-03-20T16:44:09.812Z,9.13
2023-03-20T16:45:35.046Z,9.10
2023-03-20T16:47:01.661Z,9.32
2023-03-20T16:48:33.777Z,8.93
2023-03-20T16:50:12.735Z,8.75
2023-03-20T16:51:36.275Z,9.30
2023-03-20T16:53:01.915Z,9.70
2023-03-20T16:54:29.852Z,9.25
2023-03-20T16:55:54.142Z,8.77
2023-03-20T16:57:19.111Z,9.20
2023-03-20T16:58:44.315Z,8.73
2023-03-20T17:00:17.365Z,9.02
2023-03-20T17:01:44.800Z,9.93
2023-03-20T17:03:15.085Z,8.77
2023-03-20T17:04:41.382Z,8.98
2023-03-20T17:06:10.928Z,9.20
2023-03-20T17:07:34.681Z,9.52
2023-03-20T17:09:03.627Z,9.43
2023-03-20T17:10:28.124Z,8.75
2023-03-20T17:11:53.628Z,9.77
2023-03-20T17:13:17.008Z,9.45
2023-03-20T17:14:42.762Z,9.93
2023-03-20T17:16:06.863Z,9.55
2023-03-20T17:17:32.438Z,9.48
2023-03-20T17:19:02.648Z,9.27
2023-03-20T17:20:32.013Z,9.40
2023-03-20T17:21:55.618Z,8.68
2023-03-20T17:23:23.174Z,9.55
2023-03-20T17:24:46.645Z,9.45
2023-03-20T17:26:12.542Z,9.90
2023-03-20T17:27:38.774Z,9.13
2023-03-20T17:29:02.251Z,9.88
2023-03-20T17:30:26.529Z,9.95
2023-03-20T17:31:49.933Z,9.50
2023-03-20T17:33:17.532Z,9.85
2023-03-20T17:34:41.121Z,9.13
2023-03-20T17:36:06.559Z,8.40
2023-03-20T17:37:30.963Z,9.43
2023-03-20T17:38:54.579Z,9.07
2023-03-20T17:40:20.979Z,9.50
2023-03-20T17:41:44.368Z,9.32
2023-03-20T17:43:11.790Z,8.90
2023-03-20T17:44:35.273Z,9.30
2023-03-20T17:46:00.423Z,9.73
2023-03-20T17:47:25.608Z,9.95
2023-03-20T17:48:49.772Z,9.27
2023-03-20T17:50:19.678Z,8.95
2023-03-20T17:51:47.014Z,9.75
2023-03-20T17:53:16.612Z,10.15
2023-03-20T17:54:39.973Z,9.02
2023-03-20T17:56:03.629Z,9.45
2023-03-20T17:57:32.647Z,9.70
2023-03-20T17:58:56.046Z,9.50
2023-03-20T18:00:21.495Z,9.40
2023-03-20T18:01:46.576Z,9.45
2023-03-20T18:03:09.973Z,9.82
2023-03-20T18:04:34.035Z,10.25
2023-03-20T18:05:57.623Z,9.50
2023-03-20T18:07:24.113Z,9.40
2023-03-20T18:08:47.540Z,8.63
2023-03-20T18:10:17.172Z,9.60
2023-03-20T18:11:40.589Z,9.32
2023-03-20T18:13:04.855Z,9.05
2023-03-20T18:14:28.224Z,10.23
2023-03-20T18:15:52.583Z,9.50
2023-03-20T18:17:17.464Z,9.70
2023-03-20T18:18:40.850Z,9.13
2023-03-20T18:20:04.363Z,9.63
2023-03-20T18:21:28.432Z,8.75
2023-03-20T18:22:52.277Z,10.13
2023-03-20T18:24:15.662Z,9.68
2023-03-20T18:25:39.398Z,10.32
2023-03-20T18:27:02.839Z,9.27
2023-03-20T18:28:26.230Z,9.50
2023-03-20T18:29:49.896Z,9.43
2023-03-20T18:31:14.998Z,9.38
2023-03-20T18:32:38.465Z,8.45
2023-03-20T18:34:01.875Z,8.82
2023-03-20T18:35:25.965Z,7.90
2023-03-20T18:36:49.373Z,8.73
2023-03-20T18:38:14.826Z,8.70
2023-03-20T18:39:38.180Z,9.63
2023-03-20T18:41:01.812Z,9.50
2023-03-20T18:42:25.302Z,8.93
2023-03-20T18:43:48.879Z,8.55
2023-03-20T18:45:12.988Z,9.18
2023-03-20T18:46:36.534Z,9.98
2023-03-20T18:48:03.622Z,8.45
2023-03-20T18:49:27.018Z,8.52
2023-03-20T18:50:52.466Z,9.38
2023-03-20T18:52:16.042Z,8.60
2023-03-20T18:53:41.625Z,8.40
2023-03-20T18:55:05.821Z,8.23
2023-03-20T18:56:30.169Z,8.25
2023-03-20T18:57:52.604Z,8.00
2023-03-20T18:59:16.222Z,8.25
2023-03-20T19:00:40.413Z,9.13
2023-03-20T19:02:03.908Z,8.35
2023-03-20T19:03:28.700Z,7.90
2023-03-20T19:04:52.171Z,8.68
2023-03-20T19:06:17.598Z,8.52
2023-03-20T19:07:41.203Z,8.13
2023-03-20T19:09:09.718Z,9.05
2023-03-20T19:10:35.963Z,9.35
2023-03-20T19:11:59.691Z,9.10
2023-03-20T19:13:24.731Z,9.38
2023-03-20T19:14:48.117Z,8.68
2023-03-20T19:16:21.365Z,8.43
2023-03-20T19:17:44.807Z,8.20
2023-03-20T19:19:09.173Z,9.18
2023-03-20T19:20:40.187Z,8.32
2023-03-20T19:22:05.040Z,8.27
2023-03-20T19:23:28.644Z,8.73
2023-03-20T19:24:53.419Z,9.27
2023-03-20T19:26:18.338Z,8.82
2023-03-20T19:27:43.607Z,9.32
2023-03-20T19:29:09.201Z,9.13
2023-03-20T19:30:34.828Z,8.98
2023-03-20T19:31:59.771Z,8.60
2023-03-20T19:33:23.310Z,8.63
2023-03-20T19:35:38.591Z,8.93
2023-03-20T19:36:31.983Z,8.25
2023-03-20T19:37:54.706Z,9.25
2023-03-20T19:39:18.085Z,9.88
2023-03-20T19:40:45.010Z,8.20
2023-03-20T19:42:30.388Z,8.32
2023-03-20T19:43:55.284Z,9.38
2023-03-20T19:45:19.322Z,8.95
2023-03-20T19:46:43.068Z,9.23
2023-03-20T19:48:14.282Z,9.27
2023-03-20T19:49:37.645Z,10.48
2023-03-20T19:51:01.257Z,9.68
2023-03-20T19:52:31.608Z,9.23
2023-03-20T19:53:55.807Z,9.48
2023-03-20T19:55:18.296Z,9.43
2023-03-20T19:56:43.113Z,10.10
2023-03-20T19:58:07.093Z,10.32